UAL1949 KSMF-KIAH
Flight info
| Callsign | UAL1949 |
|---|---|
| Flight time | 3h 11m |
| Altitude | 35000 |
| Route | SCTWN4 SHUFL LIDAT J92 BLD J86 ELP MRF KOBLE DLF COT SLENA BRRNS CATTT GMANN HTOWN3 |
| Aircraft | A320/M-SDE3FGHIRWY/LB1 |
Departure
| Time | 2026-04-30 18:25 |
|---|---|
| Airport | Sacramento International Airport (KSMF) |
Arrival
| Time | 2026-04-30 21:37 |
|---|---|
| Airport | George Bush Intercontinental Airport (KIAH) |
| Time | Latitude | Longitude | Altitude | Speed | Heading |
|---|---|---|---|---|---|
| 2026-04-30 18:11 | 38.69458 | -121.58701 | 24 ft | 0 kts | 271° |
| 2026-04-30 18:16 | 38.69458 | -121.58700 | 23 ft | 2 kts | 271° |
| 2026-04-30 18:17 | 38.69458 | -121.58679 | 25 ft | 2 kts | 271° |
| 2026-04-30 18:17 | 38.69458 | -121.58659 | 25 ft | 2 kts | 271° |
| 2026-04-30 18:17 | 38.69447 | -121.58622 | 25 ft | 2 kts | 339° |
| 2026-04-30 18:18 | 38.69438 | -121.58618 | 27 ft | 2 kts | 4° |
| 2026-04-30 18:18 | 38.69454 | -121.58616 | 25 ft | 2 kts | 6° |
| 2026-04-30 18:18 | 38.69464 | -121.58616 | 25 ft | 0 kts | 0° |
| 2026-04-30 18:20 | 38.69476 | -121.58616 | 23 ft | 4 kts | 0° |
| 2026-04-30 18:20 | 38.69521 | -121.58615 | 23 ft | 9 kts | 1° |
| 2026-04-30 18:21 | 38.69595 | -121.58613 | 23 ft | 12 kts | 1° |
| 2026-04-30 18:21 | 38.69681 | -121.58611 | 23 ft | 13 kts | 1° |
| 2026-04-30 18:21 | 38.69739 | -121.58608 | 23 ft | 7 kts | 16° |
| 2026-04-30 18:21 | 38.69762 | -121.58526 | 23 ft | 13 kts | 89° |
| 2026-04-30 18:22 | 38.69761 | -121.58404 | 23 ft | 15 kts | 91° |
| 2026-04-30 18:22 | 38.69851 | -121.58282 | 23 ft | 16 kts | 1° |
| 2026-04-30 18:22 | 38.69971 | -121.58280 | 23 ft | 18 kts | 1° |
| 2026-04-30 18:23 | 38.70102 | -121.58278 | 23 ft | 20 kts | 0° |
| 2026-04-30 18:23 | 38.70243 | -121.58276 | 23 ft | 21 kts | 0° |
| 2026-04-30 18:23 | 38.70393 | -121.58274 | 23 ft | 22 kts | 1° |
| 2026-04-30 18:23 | 38.70550 | -121.58270 | 23 ft | 21 kts | 1° |
| 2026-04-30 18:24 | 38.70701 | -121.58155 | 23 ft | 15 kts | 92° |
| 2026-04-30 18:24 | 38.70693 | -121.58026 | 23 ft | 9 kts | 108° |
| 2026-04-30 18:24 | 38.70640 | -121.58007 | 23 ft | 13 kts | 181° |
| 2026-04-30 18:25 | 38.70294 | -121.58013 | 23 ft | 90 kts | 180° |
| 2026-04-30 18:25 | 38.68257 | -121.58051 | 421 ft | 172 kts | 181° |
| 2026-04-30 18:25 | 38.67085 | -121.57799 | 1162 ft | 175 kts | 147° |
| 2026-04-30 18:26 | 38.65889 | -121.55021 | 2040 ft | 199 kts | 109° |
| 2026-04-30 18:26 | 38.65400 | -121.53276 | 2238 ft | 223 kts | 108° |
| 2026-04-30 18:26 | 38.64846 | -121.51312 | 2482 ft | 247 kts | 108° |
| 2026-04-30 18:27 | 38.63586 | -121.46915 | 3640 ft | 270 kts | 109° |
| 2026-04-30 18:27 | 38.62990 | -121.44630 | 4472 ft | 270 kts | 102° |
| 2026-04-30 18:28 | 38.62251 | -121.39901 | 6098 ft | 272 kts | 100° |
| 2026-04-30 18:28 | 38.61902 | -121.37542 | 6839 ft | 275 kts | 100° |
| 2026-04-30 18:28 | 38.61177 | -121.32680 | 8235 ft | 281 kts | 100° |
| 2026-04-30 18:29 | 38.60804 | -121.30200 | 8922 ft | 285 kts | 100° |
| 2026-04-30 18:29 | 38.59629 | -121.22465 | 10341 ft | 318 kts | 99° |
| 2026-04-30 18:30 | 38.58734 | -121.16589 | 10586 ft | 358 kts | 100° |
| 2026-04-30 18:30 | 38.57740 | -121.10128 | 11413 ft | 375 kts | 100° |
| 2026-04-30 18:31 | 38.57234 | -121.06878 | 11957 ft | 379 kts | 100° |
| 2026-04-30 18:31 | 38.56191 | -121.00208 | 13051 ft | 386 kts | 99° |
| 2026-04-30 18:32 | 38.55130 | -120.93397 | 14133 ft | 393 kts | 99° |
| 2026-04-30 18:32 | 38.54594 | -120.89948 | 14629 ft | 396 kts | 99° |
| 2026-04-30 18:32 | 38.53506 | -120.82984 | 15585 ft | 403 kts | 99° |
| 2026-04-30 18:33 | 38.52954 | -120.79465 | 16078 ft | 406 kts | 99° |
| 2026-04-30 18:33 | 38.51835 | -120.72379 | 17050 ft | 413 kts | 99° |
| 2026-04-30 18:33 | 38.51264 | -120.68759 | 17561 ft | 417 kts | 99° |
| 2026-04-30 18:34 | 38.50688 | -120.65106 | 18079 ft | 420 kts | 98° |
| 2026-04-30 18:34 | 38.49525 | -120.57765 | 18989 ft | 427 kts | 98° |
| 2026-04-30 18:34 | 38.48933 | -120.54036 | 19412 ft | 430 kts | 98° |
| 2026-04-30 18:35 | 38.48334 | -120.50271 | 19832 ft | 433 kts | 98° |
| 2026-04-30 18:35 | 38.47727 | -120.46482 | 20243 ft | 437 kts | 98° |
| 2026-04-30 18:35 | 38.47115 | -120.42673 | 20643 ft | 439 kts | 99° |
| 2026-04-30 18:36 | 38.45871 | -120.34983 | 21428 ft | 446 kts | 99° |
| 2026-04-30 18:36 | 38.45240 | -120.31096 | 21778 ft | 449 kts | 99° |
| 2026-04-30 18:36 | 38.43975 | -120.23293 | 22469 ft | 454 kts | 99° |
| 2026-04-30 18:37 | 38.43334 | -120.19331 | 22781 ft | 457 kts | 99° |
| 2026-04-30 18:37 | 38.42687 | -120.15354 | 23139 ft | 459 kts | 99° |
| 2026-04-30 18:37 | 38.42028 | -120.11356 | 23469 ft | 461 kts | 99° |
| 2026-04-30 18:37 | 38.41357 | -120.07334 | 23729 ft | 464 kts | 99° |
| 2026-04-30 18:38 | 38.40680 | -120.03300 | 23970 ft | 467 kts | 99° |
| 2026-04-30 18:38 | 38.39997 | -119.99248 | 24226 ft | 469 kts | 99° |
| 2026-04-30 18:38 | 38.39306 | -119.95163 | 24485 ft | 471 kts | 99° |
| 2026-04-30 18:38 | 38.38615 | -119.91071 | 24767 ft | 473 kts | 100° |
| 2026-04-30 18:39 | 38.37931 | -119.87020 | 25055 ft | 473 kts | 100° |
| 2026-04-30 18:39 | 38.37241 | -119.82925 | 25484 ft | 472 kts | 100° |
| 2026-04-30 18:39 | 38.36548 | -119.78839 | 25899 ft | 472 kts | 100° |
| 2026-04-30 18:39 | 38.35854 | -119.74745 | 26263 ft | 472 kts | 100° |
| 2026-04-30 18:40 | 38.35102 | -119.70680 | 26621 ft | 473 kts | 106° |
| 2026-04-30 18:40 | 38.33824 | -119.66798 | 26979 ft | 475 kts | 113° |
| 2026-04-30 18:40 | 38.32433 | -119.62972 | 27349 ft | 475 kts | 113° |
| 2026-04-30 18:40 | 38.31037 | -119.59151 | 27730 ft | 475 kts | 113° |
| 2026-04-30 18:41 | 38.29653 | -119.55375 | 28117 ft | 474 kts | 113° |
| 2026-04-30 18:41 | 38.28258 | -119.51573 | 28514 ft | 474 kts | 113° |
| 2026-04-30 18:41 | 38.26854 | -119.47753 | 28877 ft | 475 kts | 113° |
| 2026-04-30 18:41 | 38.25454 | -119.43945 | 29272 ft | 474 kts | 113° |
| 2026-04-30 18:42 | 38.24054 | -119.40145 | 29657 ft | 475 kts | 114° |
| 2026-04-30 18:42 | 38.21256 | -119.32568 | 30373 ft | 475 kts | 114° |
| 2026-04-30 18:42 | 38.19849 | -119.28761 | 30703 ft | 474 kts | 114° |
| 2026-04-30 18:45 | 38.05717 | -118.90786 | 33045 ft | 491 kts | 115° |
| 2026-04-30 18:45 | 38.04243 | -118.86858 | 33035 ft | 493 kts | 115° |
| 2026-04-30 18:46 | 38.01294 | -118.79034 | 33030 ft | 494 kts | 115° |
| 2026-04-30 18:46 | 37.98334 | -118.71165 | 33022 ft | 494 kts | 115° |
| 2026-04-30 18:47 | 37.95868 | -118.64615 | 33031 ft | 494 kts | 115° |
| 2026-04-30 18:47 | 37.92407 | -118.55474 | 33017 ft | 495 kts | 115° |
| 2026-04-30 18:48 | 37.89926 | -118.48936 | 33006 ft | 495 kts | 115° |
| 2026-04-30 18:48 | 37.86940 | -118.41076 | 33013 ft | 495 kts | 115° |
| 2026-04-30 18:49 | 37.83946 | -118.33228 | 33019 ft | 495 kts | 115° |
| 2026-04-30 18:49 | 37.80945 | -118.25371 | 33021 ft | 495 kts | 115° |
| 2026-04-30 18:50 | 37.77963 | -118.17582 | 33012 ft | 495 kts | 115° |
| 2026-04-30 18:50 | 37.74956 | -118.09757 | 33011 ft | 495 kts | 115° |
| 2026-04-30 18:51 | 37.71933 | -118.01903 | 33024 ft | 495 kts | 115° |
| 2026-04-30 18:51 | 37.68934 | -117.94123 | 33027 ft | 495 kts | 115° |
| 2026-04-30 18:52 | 37.65910 | -117.86299 | 33001 ft | 495 kts | 115° |
| 2026-04-30 18:52 | 37.62890 | -117.78546 | 33008 ft | 494 kts | 115° |
| 2026-04-30 18:53 | 37.59848 | -117.70743 | 33018 ft | 494 kts | 115° |
| 2026-04-30 18:53 | 37.56811 | -117.62960 | 33027 ft | 494 kts | 115° |
| 2026-04-30 18:54 | 37.53792 | -117.55226 | 33033 ft | 494 kts | 115° |
| 2026-04-30 18:54 | 37.50749 | -117.47458 | 33036 ft | 493 kts | 115° |
| 2026-04-30 18:55 | 37.47718 | -117.39753 | 33046 ft | 493 kts | 115° |
| 2026-04-30 18:55 | 37.42517 | -117.28593 | 33038 ft | 493 kts | 131° |
| 2026-04-30 18:56 | 37.37353 | -117.22965 | 33035 ft | 491 kts | 147° |
| 2026-04-30 18:56 | 37.34545 | -117.20604 | 33025 ft | 492 kts | 147° |
| 2026-04-30 18:57 | 37.26010 | -117.13386 | 33031 ft | 492 kts | 147° |
| 2026-04-30 18:57 | 37.20360 | -117.08603 | 33002 ft | 492 kts | 147° |
| 2026-04-30 18:58 | 37.11815 | -117.01390 | 32992 ft | 492 kts | 147° |
| 2026-04-30 18:59 | 37.03320 | -116.94233 | 32970 ft | 492 kts | 147° |
| 2026-04-30 19:00 | 36.91950 | -116.84706 | 32982 ft | 491 kts | 147° |
| 2026-04-30 19:01 | 36.80975 | -116.74650 | 32958 ft | 490 kts | 132° |
| 2026-04-30 19:02 | 36.75556 | -116.63930 | 32952 ft | 488 kts | 116° |
| 2026-04-30 19:03 | 36.69318 | -116.48965 | 32943 ft | 488 kts | 116° |
| 2026-04-30 19:04 | 36.63049 | -116.34024 | 32938 ft | 487 kts | 116° |
| 2026-04-30 19:05 | 36.56767 | -116.19104 | 32922 ft | 487 kts | 116° |
| 2026-04-30 19:06 | 36.50481 | -116.04239 | 32938 ft | 485 kts | 116° |
| 2026-04-30 19:06 | 36.45752 | -115.93123 | 32966 ft | 485 kts | 117° |
| 2026-04-30 19:07 | 36.41021 | -115.82012 | 32967 ft | 484 kts | 117° |
| 2026-04-30 19:08 | 36.34724 | -115.67298 | 32995 ft | 482 kts | 117° |
| 2026-04-30 19:09 | 36.29993 | -115.56270 | 32999 ft | 482 kts | 117° |
| 2026-04-30 19:09 | 36.26852 | -115.48985 | 32978 ft | 482 kts | 117° |
| 2026-04-30 19:10 | 36.20513 | -115.34357 | 32989 ft | 480 kts | 117° |
| 2026-04-30 19:11 | 36.15784 | -115.23426 | 32996 ft | 480 kts | 117° |
| 2026-04-30 19:12 | 36.12616 | -115.16140 | 32995 ft | 480 kts | 117° |
| 2026-04-30 19:12 | 36.09467 | -115.08922 | 33008 ft | 479 kts | 117° |
| 2026-04-30 19:13 | 36.03112 | -114.94402 | 32984 ft | 479 kts | 118° |
| 2026-04-30 19:14 | 35.99970 | -114.87172 | 32979 ft | 480 kts | 114° |
| 2026-04-30 19:14 | 35.97669 | -114.79445 | 32976 ft | 479 kts | 108° |
| 2026-04-30 19:15 | 35.95536 | -114.71671 | 32982 ft | 477 kts | 108° |
| 2026-04-30 19:15 | 35.92322 | -114.60036 | 32936 ft | 477 kts | 108° |
| 2026-04-30 19:16 | 35.90181 | -114.52338 | 32915 ft | 477 kts | 108° |
| 2026-04-30 19:17 | 35.86955 | -114.40770 | 32881 ft | 476 kts | 108° |
| 2026-04-30 19:17 | 35.83711 | -114.29154 | 32879 ft | 477 kts | 108° |
| 2026-04-30 19:18 | 35.80471 | -114.17587 | 32879 ft | 477 kts | 108° |
| 2026-04-30 19:19 | 35.78277 | -114.09841 | 32876 ft | 478 kts | 108° |
| 2026-04-30 19:19 | 35.74988 | -113.98246 | 32881 ft | 478 kts | 109° |
| 2026-04-30 19:20 | 35.72808 | -113.90538 | 32863 ft | 479 kts | 109° |
| 2026-04-30 19:21 | 35.69517 | -113.79002 | 32894 ft | 477 kts | 108° |
| 2026-04-30 19:22 | 35.65130 | -113.63659 | 32891 ft | 476 kts | 109° |
| 2026-04-30 19:22 | 35.62496 | -113.51928 | 32890 ft | 474 kts | 94° |
| 2026-04-30 19:23 | 35.62296 | -113.39817 | 32886 ft | 474 kts | 90° |
| 2026-04-30 19:24 | 35.62120 | -113.27608 | 32882 ft | 476 kts | 90° |
| 2026-04-30 19:25 | 35.61806 | -113.07348 | 32924 ft | 475 kts | 90° |
| 2026-04-30 19:26 | 35.61522 | -112.91111 | 32913 ft | 476 kts | 91° |
| 2026-04-30 19:27 | 35.61302 | -112.78930 | 32970 ft | 477 kts | 91° |
| 2026-04-30 19:27 | 35.61147 | -112.70758 | 33508 ft | 479 kts | 91° |
| 2026-04-30 19:28 | 35.61065 | -112.66652 | 33786 ft | 479 kts | 91° |
| 2026-04-30 19:28 | 35.60902 | -112.58468 | 34300 ft | 479 kts | 92° |
| 2026-04-30 19:29 | 35.60735 | -112.50328 | 34765 ft | 479 kts | 92° |
| 2026-04-30 19:29 | 35.60650 | -112.46217 | 34898 ft | 480 kts | 92° |
| 2026-04-30 19:30 | 35.60363 | -112.33875 | 34961 ft | 484 kts | 93° |
| 2026-04-30 19:31 | 35.59868 | -112.17316 | 34943 ft | 487 kts | 95° |
| 2026-04-30 19:31 | 35.59475 | -112.04748 | 34936 ft | 494 kts | 95° |
| 2026-04-30 19:32 | 35.59213 | -111.96294 | 34932 ft | 495 kts | 95° |
| 2026-04-30 19:32 | 35.58203 | -111.88048 | 34927 ft | 487 kts | 111° |
| 2026-04-30 19:33 | 35.55379 | -111.80595 | 34928 ft | 478 kts | 126° |
| 2026-04-30 19:33 | 35.52005 | -111.73580 | 34903 ft | 481 kts | 126° |
| 2026-04-30 19:34 | 35.48596 | -111.66477 | 34896 ft | 482 kts | 126° |
| 2026-04-30 19:35 | 35.43476 | -111.55858 | 34887 ft | 484 kts | 128° |
| 2026-04-30 19:35 | 35.40035 | -111.48743 | 34891 ft | 485 kts | 128° |
| 2026-04-30 19:36 | 35.36582 | -111.41620 | 34906 ft | 485 kts | 128° |
| 2026-04-30 19:36 | 35.31407 | -111.30983 | 34907 ft | 485 kts | 128° |
| 2026-04-30 19:37 | 35.27945 | -111.23877 | 34896 ft | 485 kts | 129° |
| 2026-04-30 19:37 | 35.24499 | -111.16823 | 34906 ft | 484 kts | 129° |
| 2026-04-30 19:38 | 35.21610 | -111.10917 | 34907 ft | 485 kts | 129° |
| 2026-04-30 19:38 | 35.18141 | -111.03838 | 34891 ft | 485 kts | 129° |
| 2026-04-30 19:39 | 35.14683 | -110.96802 | 34956 ft | 486 kts | 129° |
| 2026-04-30 19:39 | 35.11195 | -110.89713 | 34980 ft | 486 kts | 130° |
| 2026-04-30 19:40 | 35.07722 | -110.82655 | 35040 ft | 486 kts | 130° |
| 2026-04-30 19:40 | 35.03836 | -110.76033 | 35036 ft | 474 kts | 140° |
| 2026-04-30 19:41 | 34.99618 | -110.69821 | 35033 ft | 475 kts | 140° |
| 2026-04-30 19:41 | 34.95388 | -110.63584 | 35030 ft | 476 kts | 140° |
| 2026-04-30 19:42 | 34.93303 | -110.60509 | 34834 ft | 477 kts | 140° |
| 2026-04-30 19:42 | 34.91191 | -110.57392 | 34845 ft | 477 kts | 140° |
| 2026-04-30 19:42 | 34.86960 | -110.51152 | 34870 ft | 476 kts | 140° |
| 2026-04-30 19:43 | 34.82723 | -110.44925 | 34871 ft | 477 kts | 140° |
| 2026-04-30 19:44 | 34.76368 | -110.35606 | 34877 ft | 478 kts | 140° |
| 2026-04-30 19:44 | 34.72137 | -110.29425 | 34843 ft | 478 kts | 140° |
| 2026-04-30 19:45 | 34.67871 | -110.23189 | 34861 ft | 478 kts | 140° |
| 2026-04-30 19:45 | 34.63611 | -110.16976 | 34862 ft | 478 kts | 140° |
| 2026-04-30 19:46 | 34.59343 | -110.10772 | 34869 ft | 478 kts | 140° |
| 2026-04-30 19:46 | 34.55093 | -110.04599 | 35273 ft | 480 kts | 131° |
| 2026-04-30 19:46 | 34.52933 | -110.01464 | 35059 ft | 484 kts | 130° |
| 2026-04-30 19:47 | 34.50771 | -109.98328 | 34998 ft | 484 kts | 130° |
| 2026-04-30 19:47 | 34.46448 | -109.92069 | 35009 ft | 482 kts | 130° |
| 2026-04-30 19:48 | 34.42167 | -109.85884 | 35009 ft | 480 kts | 130° |
| 2026-04-30 19:48 | 34.37844 | -109.79657 | 33837 ft | 490 kts | 130° |
| 2026-04-30 19:48 | 34.35630 | -109.76468 | 33315 ft | 497 kts | 130° |
| 2026-04-30 19:49 | 34.33420 | -109.73288 | 33079 ft | 500 kts | 130° |
| 2026-04-30 19:49 | 34.26721 | -109.63669 | 33010 ft | 494 kts | 130° |
| 2026-04-30 19:50 | 34.22430 | -109.57213 | 33009 ft | 491 kts | 127° |
| 2026-04-30 19:50 | 34.18357 | -109.50593 | 33009 ft | 488 kts | 127° |
| 2026-04-30 19:51 | 34.14289 | -109.44089 | 33009 ft | 486 kts | 129° |
| 2026-04-30 19:51 | 34.09913 | -109.37859 | 33009 ft | 484 kts | 131° |
| 2026-04-30 19:52 | 34.05462 | -109.31830 | 33009 ft | 483 kts | 132° |
| 2026-04-30 19:52 | 34.01036 | -109.25737 | 33009 ft | 482 kts | 131° |
| 2026-04-30 19:53 | 33.96688 | -109.19617 | 33009 ft | 478 kts | 130° |
| 2026-04-30 19:53 | 33.92361 | -109.13522 | 33006 ft | 478 kts | 131° |
| 2026-04-30 19:54 | 33.88052 | -109.07492 | 33009 ft | 477 kts | 131° |
| 2026-04-30 19:54 | 33.83705 | -109.01434 | 33009 ft | 477 kts | 131° |
| 2026-04-30 19:55 | 33.79365 | -108.95390 | 33009 ft | 477 kts | 131° |
| 2026-04-30 19:55 | 33.75036 | -108.89376 | 33009 ft | 477 kts | 131° |
| 2026-04-30 19:56 | 33.73541 | -108.87303 | 33009 ft | 477 kts | 131° |
| 2026-04-30 19:56 | 33.70455 | -108.83028 | 33009 ft | 477 kts | 131° |
| 2026-04-30 19:57 | 33.66130 | -108.77032 | 33009 ft | 477 kts | 131° |
| 2026-04-30 19:57 | 33.61786 | -108.71023 | 33009 ft | 477 kts | 131° |
| 2026-04-30 19:58 | 33.57434 | -108.65009 | 33009 ft | 477 kts | 131° |
| 2026-04-30 19:58 | 33.53081 | -108.59011 | 33007 ft | 475 kts | 131° |
| 2026-04-30 19:59 | 33.48736 | -108.53047 | 33007 ft | 476 kts | 137° |
| 2026-04-30 19:59 | 33.44342 | -108.47038 | 33010 ft | 489 kts | 141° |
| 2026-04-30 20:00 | 33.42095 | -108.43964 | 33071 ft | 492 kts | 141° |
| 2026-04-30 20:00 | 33.39844 | -108.40874 | 33317 ft | 492 kts | 141° |
| 2026-04-30 20:00 | 33.37594 | -108.37775 | 33555 ft | 492 kts | 142° |
| 2026-04-30 20:00 | 33.35352 | -108.34684 | 33805 ft | 492 kts | 142° |
| 2026-04-30 20:01 | 33.30851 | -108.28517 | 34358 ft | 490 kts | 142° |
| 2026-04-30 20:01 | 33.28604 | -108.25456 | 34653 ft | 489 kts | 142° |
| 2026-04-30 20:01 | 33.26387 | -108.22442 | 34936 ft | 488 kts | 143° |
| 2026-04-30 20:02 | 33.19675 | -108.13312 | 35007 ft | 487 kts | 142° |
| 2026-04-30 20:03 | 33.12991 | -108.04120 | 35005 ft | 489 kts | 142° |
| 2026-04-30 20:03 | 33.08549 | -107.98018 | 35016 ft | 491 kts | 142° |
| 2026-04-30 20:04 | 33.04064 | -107.91873 | 35007 ft | 490 kts | 142° |
| 2026-04-30 20:05 | 32.97321 | -107.82675 | 35023 ft | 490 kts | 132° |
| 2026-04-30 20:05 | 32.90658 | -107.73577 | 34609 ft | 486 kts | 143° |
| 2026-04-30 20:06 | 32.88424 | -107.70548 | 34757 ft | 487 kts | 143° |
| 2026-04-30 20:06 | 32.86175 | -107.67515 | 34833 ft | 490 kts | 143° |
| 2026-04-30 20:06 | 32.81687 | -107.61452 | 34834 ft | 491 kts | 143° |
| 2026-04-30 20:07 | 32.77176 | -107.55337 | 34830 ft | 491 kts | 143° |
| 2026-04-30 20:08 | 32.70399 | -107.46162 | 34803 ft | 490 kts | 143° |
| 2026-04-30 20:08 | 32.65930 | -107.40129 | 34847 ft | 489 kts | 143° |
| 2026-04-30 20:09 | 32.61428 | -107.34055 | 34845 ft | 489 kts | 143° |
| 2026-04-30 20:09 | 32.54692 | -107.25008 | 34863 ft | 489 kts | 143° |
| 2026-04-30 20:10 | 32.47911 | -107.15940 | 34863 ft | 489 kts | 143° |
| 2026-04-30 20:11 | 32.41189 | -107.06943 | 34891 ft | 487 kts | 143° |
| 2026-04-30 20:11 | 32.36698 | -107.00936 | 34886 ft | 487 kts | 143° |
| 2026-04-30 20:12 | 32.32185 | -106.94930 | 35053 ft | 488 kts | 143° |
| 2026-04-30 20:12 | 32.29922 | -106.91927 | 35051 ft | 488 kts | 143° |
| 2026-04-30 20:13 | 32.25437 | -106.85974 | 34898 ft | 488 kts | 143° |
| 2026-04-30 20:13 | 32.20923 | -106.79978 | 34918 ft | 488 kts | 143° |
| 2026-04-30 20:14 | 32.16402 | -106.73991 | 34951 ft | 488 kts | 143° |
| 2026-04-30 20:14 | 32.11897 | -106.68027 | 34967 ft | 488 kts | 143° |
| 2026-04-30 20:15 | 32.07360 | -106.62036 | 34984 ft | 489 kts | 143° |
| 2026-04-30 20:15 | 32.02803 | -106.56032 | 34977 ft | 489 kts | 143° |
| 2026-04-30 20:16 | 31.98288 | -106.50086 | 35000 ft | 489 kts | 143° |
| 2026-04-30 20:16 | 31.93739 | -106.44102 | 35035 ft | 489 kts | 143° |
| 2026-04-30 20:17 | 31.89182 | -106.38123 | 35044 ft | 489 kts | 143° |
| 2026-04-30 20:17 | 31.84656 | -106.32199 | 35043 ft | 490 kts | 143° |
| 2026-04-30 20:18 | 31.80220 | -106.26043 | 35002 ft | 500 kts | 137° |
| 2026-04-30 20:18 | 31.76050 | -106.19455 | 34966 ft | 502 kts | 137° |
| 2026-04-30 20:19 | 31.71888 | -106.12886 | 34934 ft | 503 kts | 137° |
| 2026-04-30 20:19 | 31.67681 | -106.06268 | 34891 ft | 504 kts | 137° |
| 2026-04-30 20:20 | 31.63507 | -105.99710 | 34862 ft | 505 kts | 137° |
| 2026-04-30 20:20 | 31.59289 | -105.93105 | 34817 ft | 506 kts | 137° |
| 2026-04-30 20:21 | 31.55055 | -105.86484 | 34845 ft | 507 kts | 137° |
| 2026-04-30 20:21 | 31.50810 | -105.79850 | 34849 ft | 507 kts | 137° |
| 2026-04-30 20:22 | 31.46591 | -105.73270 | 34862 ft | 507 kts | 137° |
| 2026-04-30 20:22 | 31.42343 | -105.66647 | 34863 ft | 507 kts | 137° |
| 2026-04-30 20:23 | 31.38125 | -105.60084 | 34834 ft | 507 kts | 137° |
| 2026-04-30 20:23 | 31.33866 | -105.53481 | 34838 ft | 507 kts | 137° |
| 2026-04-30 20:24 | 31.29600 | -105.46884 | 34846 ft | 508 kts | 137° |
| 2026-04-30 20:24 | 31.26041 | -105.41389 | 34851 ft | 508 kts | 137° |
| 2026-04-30 20:25 | 31.19652 | -105.31526 | 34864 ft | 509 kts | 137° |
| 2026-04-30 20:26 | 31.13222 | -105.21632 | 34835 ft | 509 kts | 137° |
| 2026-04-30 20:26 | 31.06811 | -105.11779 | 34867 ft | 509 kts | 137° |
| 2026-04-30 20:27 | 30.98219 | -104.98612 | 34873 ft | 509 kts | 137° |
| 2026-04-30 20:28 | 30.89621 | -104.85504 | 34829 ft | 509 kts | 136° |
| 2026-04-30 20:30 | 30.78861 | -104.69145 | 34840 ft | 510 kts | 136° |
| 2026-04-30 20:31 | 30.65947 | -104.49604 | 34843 ft | 508 kts | 136° |
| 2026-04-30 20:32 | 30.55175 | -104.33389 | 34870 ft | 507 kts | 136° |
| 2026-04-30 20:33 | 30.48703 | -104.23669 | 34866 ft | 507 kts | 136° |
| 2026-04-30 20:34 | 30.42224 | -104.13951 | 34850 ft | 507 kts | 136° |
| 2026-04-30 20:35 | 30.35750 | -104.04275 | 35075 ft | 508 kts | 136° |
| 2026-04-30 20:35 | 30.29982 | -103.93812 | 35058 ft | 528 kts | 116° |
| 2026-04-30 20:36 | 30.28257 | -103.85512 | 35008 ft | 537 kts | 104° |
| 2026-04-30 20:37 | 30.26226 | -103.72732 | 34913 ft | 538 kts | 104° |
| 2026-04-30 20:37 | 30.24838 | -103.64212 | 34864 ft | 538 kts | 104° |
| 2026-04-30 20:38 | 30.23464 | -103.55747 | 34826 ft | 538 kts | 104° |
| 2026-04-30 20:38 | 30.22084 | -103.47225 | 34829 ft | 537 kts | 104° |
| 2026-04-30 20:39 | 30.20019 | -103.34554 | 34871 ft | 536 kts | 104° |
| 2026-04-30 20:40 | 30.17926 | -103.21855 | 34868 ft | 535 kts | 105° |
| 2026-04-30 20:40 | 30.16540 | -103.13458 | 34880 ft | 534 kts | 105° |
| 2026-04-30 20:41 | 30.14434 | -103.00796 | 34882 ft | 534 kts | 104° |
| 2026-04-30 20:41 | 30.13051 | -102.92369 | 34880 ft | 535 kts | 100° |
| 2026-04-30 20:42 | 30.12469 | -102.83807 | 34886 ft | 537 kts | 96° |
| 2026-04-30 20:43 | 30.11686 | -102.70876 | 34883 ft | 537 kts | 96° |
| 2026-04-30 20:43 | 30.11153 | -102.62279 | 34888 ft | 537 kts | 97° |
| 2026-04-30 20:44 | 30.10320 | -102.49376 | 34888 ft | 536 kts | 97° |
| 2026-04-30 20:45 | 30.08864 | -102.32396 | 34875 ft | 533 kts | 100° |
| 2026-04-30 20:45 | 30.07917 | -102.23887 | 34874 ft | 534 kts | 100° |
| 2026-04-30 20:46 | 30.06188 | -102.06866 | 34873 ft | 535 kts | 99° |
| 2026-04-30 20:47 | 30.04896 | -101.94113 | 34879 ft | 534 kts | 99° |
| 2026-04-30 20:48 | 30.03564 | -101.81319 | 34887 ft | 534 kts | 99° |
| 2026-04-30 20:48 | 30.02683 | -101.72849 | 34889 ft | 534 kts | 99° |
| 2026-04-30 20:49 | 30.01794 | -101.64321 | 34886 ft | 534 kts | 99° |
| 2026-04-30 20:50 | 30.00457 | -101.51573 | 34889 ft | 533 kts | 99° |
| 2026-04-30 20:50 | 29.99550 | -101.43072 | 34892 ft | 533 kts | 99° |
| 2026-04-30 20:51 | 29.98648 | -101.34638 | 34892 ft | 532 kts | 99° |
| 2026-04-30 20:51 | 29.97263 | -101.21904 | 34889 ft | 533 kts | 99° |
| 2026-04-30 20:52 | 29.96348 | -101.13468 | 34879 ft | 533 kts | 99° |
| 2026-04-30 20:53 | 29.94961 | -101.00753 | 34879 ft | 534 kts | 99° |
| 2026-04-30 20:53 | 29.94024 | -100.92244 | 34856 ft | 534 kts | 99° |
| 2026-04-30 20:54 | 29.92608 | -100.79535 | 34872 ft | 534 kts | 99° |
| 2026-04-30 20:55 | 29.91170 | -100.66793 | 34883 ft | 534 kts | 99° |
| 2026-04-30 20:55 | 29.90210 | -100.58301 | 34888 ft | 534 kts | 99° |
| 2026-04-30 20:56 | 29.88766 | -100.45582 | 34895 ft | 536 kts | 99° |
| 2026-04-30 20:57 | 29.87295 | -100.32762 | 34887 ft | 536 kts | 99° |
| 2026-04-30 20:57 | 29.86317 | -100.24286 | 34892 ft | 537 kts | 99° |
| 2026-04-30 20:58 | 29.84826 | -100.11478 | 34893 ft | 536 kts | 99° |
| 2026-04-30 20:58 | 29.83832 | -100.03008 | 34898 ft | 536 kts | 99° |
| 2026-04-30 20:59 | 29.82323 | -99.90211 | 34899 ft | 536 kts | 99° |
| 2026-04-30 21:00 | 29.80295 | -99.73248 | 34899 ft | 536 kts | 99° |
| 2026-04-30 21:01 | 29.78766 | -99.60543 | 34904 ft | 536 kts | 99° |
| 2026-04-30 21:02 | 29.77216 | -99.47770 | 34877 ft | 535 kts | 99° |
| 2026-04-30 21:02 | 29.76182 | -99.39335 | 34903 ft | 535 kts | 99° |
| 2026-04-30 21:03 | 29.75140 | -99.30856 | 34926 ft | 535 kts | 99° |
| 2026-04-30 21:03 | 29.74096 | -99.22417 | 34935 ft | 534 kts | 99° |
| 2026-04-30 21:04 | 29.73037 | -99.13942 | 34934 ft | 534 kts | 99° |
| 2026-04-30 21:04 | 29.71455 | -99.01283 | 34938 ft | 534 kts | 99° |
| 2026-04-30 21:05 | 29.70392 | -98.92809 | 34926 ft | 534 kts | 99° |
| 2026-04-30 21:05 | 29.69326 | -98.84388 | 34915 ft | 534 kts | 99° |
| 2026-04-30 21:06 | 29.68251 | -98.75915 | 34926 ft | 534 kts | 99° |
| 2026-04-30 21:06 | 29.67163 | -98.67459 | 34932 ft | 534 kts | 99° |
| 2026-04-30 21:07 | 29.66076 | -98.59058 | 34940 ft | 533 kts | 99° |
| 2026-04-30 21:07 | 29.64986 | -98.50615 | 34946 ft | 533 kts | 99° |
| 2026-04-30 21:08 | 29.64272 | -98.42120 | 34924 ft | 533 kts | 92° |
| 2026-04-30 21:08 | 29.63982 | -98.33594 | 34935 ft | 533 kts | 92° |
| 2026-04-30 21:09 | 29.63674 | -98.25125 | 34938 ft | 532 kts | 92° |
| 2026-04-30 21:09 | 29.63363 | -98.16658 | 34921 ft | 529 kts | 92° |
| 2026-04-30 21:10 | 29.63050 | -98.08209 | 34924 ft | 530 kts | 92° |
| 2026-04-30 21:10 | 29.62717 | -97.99734 | 34924 ft | 531 kts | 92° |
| 2026-04-30 21:11 | 29.62388 | -97.91257 | 34879 ft | 529 kts | 92° |
| 2026-04-30 21:11 | 29.62057 | -97.82817 | 34886 ft | 529 kts | 92° |
| 2026-04-30 21:12 | 29.61727 | -97.74424 | 34886 ft | 528 kts | 92° |
| 2026-04-30 21:12 | 29.61397 | -97.65979 | 34894 ft | 528 kts | 92° |
| 2026-04-30 21:13 | 29.61053 | -97.57539 | 34873 ft | 528 kts | 92° |
| 2026-04-30 21:13 | 29.60708 | -97.49131 | 34682 ft | 525 kts | 92° |
| 2026-04-30 21:14 | 29.60528 | -97.44937 | 34449 ft | 525 kts | 92° |
| 2026-04-30 21:14 | 29.60348 | -97.40790 | 34221 ft | 525 kts | 92° |
| 2026-04-30 21:14 | 29.60164 | -97.36595 | 33992 ft | 525 kts | 92° |
| 2026-04-30 21:14 | 29.59978 | -97.32382 | 33061 ft | 530 kts | 92° |
| 2026-04-30 21:15 | 29.59789 | -97.28124 | 32028 ft | 536 kts | 92° |
| 2026-04-30 21:15 | 29.59602 | -97.23832 | 30943 ft | 541 kts | 92° |
| 2026-04-30 21:15 | 29.59414 | -97.19494 | 29891 ft | 545 kts | 92° |
| 2026-04-30 21:15 | 29.59224 | -97.15118 | 28575 ft | 550 kts | 92° |
| 2026-04-30 21:16 | 29.59096 | -97.12213 | 27757 ft | 551 kts | 92° |
| 2026-04-30 21:16 | 29.58835 | -97.06356 | 26038 ft | 554 kts | 92° |
| 2026-04-30 21:16 | 29.58633 | -97.01917 | 25042 ft | 552 kts | 93° |
| 2026-04-30 21:16 | 29.58434 | -96.97553 | 24302 ft | 543 kts | 93° |
| 2026-04-30 21:17 | 29.58302 | -96.94684 | 23752 ft | 541 kts | 93° |
| 2026-04-30 21:17 | 29.58103 | -96.90380 | 22854 ft | 536 kts | 93° |
| 2026-04-30 21:17 | 29.57903 | -96.86138 | 22080 ft | 527 kts | 93° |
| 2026-04-30 21:17 | 29.57704 | -96.81960 | 21285 ft | 520 kts | 93° |
| 2026-04-30 21:18 | 29.57507 | -96.77831 | 20513 ft | 514 kts | 93° |
| 2026-04-30 21:18 | 29.57313 | -96.73748 | 19750 ft | 509 kts | 94° |
| 2026-04-30 21:18 | 29.57120 | -96.69700 | 18998 ft | 503 kts | 94° |
| 2026-04-30 21:18 | 29.56932 | -96.65759 | 18258 ft | 498 kts | 94° |
| 2026-04-30 21:19 | 29.56741 | -96.61805 | 17497 ft | 491 kts | 94° |
| 2026-04-30 21:19 | 29.56553 | -96.57919 | 16935 ft | 481 kts | 94° |
| 2026-04-30 21:19 | 29.56367 | -96.54109 | 16314 ft | 474 kts | 94° |
| 2026-04-30 21:19 | 29.56182 | -96.50345 | 15698 ft | 468 kts | 94° |
| 2026-04-30 21:20 | 29.55997 | -96.46630 | 15075 ft | 463 kts | 95° |
| 2026-04-30 21:20 | 29.55814 | -96.43001 | 14460 ft | 459 kts | 95° |
| 2026-04-30 21:20 | 29.55632 | -96.39383 | 14210 ft | 446 kts | 95° |
| 2026-04-30 21:20 | 29.55458 | -96.35889 | 14089 ft | 429 kts | 95° |
| 2026-04-30 21:21 | 29.55292 | -96.32528 | 13975 ft | 412 kts | 95° |
| 2026-04-30 21:21 | 29.55132 | -96.29303 | 13859 ft | 396 kts | 95° |
| 2026-04-30 21:21 | 29.54928 | -96.23402 | 13440 ft | 354 kts | 86° |
| 2026-04-30 21:22 | 29.55429 | -96.20675 | 12936 ft | 345 kts | 70° |
| 2026-04-30 21:22 | 29.59752 | -96.14391 | 11974 ft | 334 kts | 42° |
| 2026-04-30 21:23 | 29.61451 | -96.12555 | 11576 ft | 335 kts | 42° |
| 2026-04-30 21:23 | 29.63115 | -96.10755 | 11271 ft | 331 kts | 43° |
| 2026-04-30 21:23 | 29.66410 | -96.07185 | 10392 ft | 315 kts | 43° |
| 2026-04-30 21:24 | 29.67983 | -96.05482 | 9962 ft | 308 kts | 44° |
| 2026-04-30 21:24 | 29.69529 | -96.03811 | 9563 ft | 301 kts | 44° |
| 2026-04-30 21:24 | 29.71044 | -96.02175 | 9182 ft | 297 kts | 44° |
| 2026-04-30 21:24 | 29.72637 | -96.00663 | 8834 ft | 298 kts | 34° |
| 2026-04-30 21:25 | 29.76035 | -95.98030 | 8330 ft | 291 kts | 34° |
| 2026-04-30 21:25 | 29.77701 | -95.96728 | 8063 ft | 289 kts | 34° |
| 2026-04-30 21:25 | 29.79358 | -95.95431 | 7798 ft | 286 kts | 34° |
| 2026-04-30 21:26 | 29.82643 | -95.92862 | 7297 ft | 282 kts | 34° |
| 2026-04-30 21:26 | 29.84234 | -95.91613 | 7197 ft | 272 kts | 34° |
| 2026-04-30 21:27 | 29.87250 | -95.89250 | 6983 ft | 254 kts | 33° |
| 2026-04-30 21:27 | 29.88697 | -95.88123 | 6996 ft | 248 kts | 33° |
| 2026-04-30 21:27 | 29.90134 | -95.87004 | 6996 ft | 249 kts | 33° |
| 2026-04-30 21:28 | 29.93002 | -95.84762 | 6974 ft | 249 kts | 34° |
| 2026-04-30 21:28 | 29.94417 | -95.83653 | 6976 ft | 248 kts | 34° |
| 2026-04-30 21:28 | 29.97215 | -95.81315 | 6948 ft | 248 kts | 46° |
| 2026-04-30 21:29 | 29.98206 | -95.79698 | 6955 ft | 247 kts | 65° |
| 2026-04-30 21:29 | 29.99264 | -95.73995 | 6611 ft | 247 kts | 90° |
| 2026-04-30 21:30 | 29.99268 | -95.69983 | 5773 ft | 250 kts | 91° |
| 2026-04-30 21:31 | 29.99279 | -95.64201 | 4767 ft | 231 kts | 93° |
| 2026-04-30 21:31 | 29.99291 | -95.60543 | 4271 ft | 229 kts | 93° |
| 2026-04-30 21:32 | 29.99301 | -95.56876 | 3669 ft | 223 kts | 93° |
| 2026-04-30 21:32 | 29.99307 | -95.55156 | 3399 ft | 212 kts | 93° |
| 2026-04-30 21:32 | 29.99311 | -95.53495 | 3134 ft | 203 kts | 92° |
| 2026-04-30 21:32 | 29.99314 | -95.51880 | 2868 ft | 200 kts | 91° |
| 2026-04-30 21:33 | 29.99317 | -95.50288 | 2619 ft | 196 kts | 91° |
| 2026-04-30 21:33 | 29.99324 | -95.47156 | 2106 ft | 194 kts | 89° |
| 2026-04-30 21:33 | 29.99327 | -95.45614 | 1832 ft | 195 kts | 88° |
| 2026-04-30 21:34 | 29.99328 | -95.44109 | 1607 ft | 180 kts | 86° |
| 2026-04-30 21:34 | 29.99331 | -95.41448 | 1152 ft | 148 kts | 86° |
| 2026-04-30 21:34 | 29.99333 | -95.40293 | 955 ft | 142 kts | 85° |
| 2026-04-30 21:35 | 29.99336 | -95.39149 | 770 ft | 143 kts | 85° |
| 2026-04-30 21:35 | 29.99341 | -95.38009 | 582 ft | 145 kts | 85° |
| 2026-04-30 21:35 | 29.99340 | -95.36840 | 372 ft | 146 kts | 84° |
| 2026-04-30 21:35 | 29.99340 | -95.35672 | 191 ft | 145 kts | 84° |
| 2026-04-30 21:36 | 29.99345 | -95.34549 | 107 ft | 122 kts | 90° |
| 2026-04-30 21:36 | 29.99343 | -95.33764 | 106 ft | 73 kts | 90° |
| 2026-04-30 21:37 | 29.99240 | -95.33148 | 107 ft | 23 kts | 119° |
| 2026-04-30 21:37 | 29.99157 | -95.33028 | 107 ft | 17 kts | 162° |
| 2026-04-30 21:37 | 29.99032 | -95.33025 | 107 ft | 19 kts | 180° |
| 2026-04-30 21:37 | 29.98895 | -95.33025 | 107 ft | 21 kts | 180° |
| 2026-04-30 21:38 | 29.98745 | -95.33025 | 107 ft | 22 kts | 180° |
| 2026-04-30 21:38 | 29.98583 | -95.33025 | 107 ft | 24 kts | 180° |
| 2026-04-30 21:38 | 29.98412 | -95.33026 | 107 ft | 20 kts | 180° |
| 2026-04-30 21:38 | 29.98308 | -95.33048 | 107 ft | 14 kts | 233° |
| 2026-04-30 21:39 | 29.98301 | -95.33169 | 107 ft | 16 kts | 270° |
| 2026-04-30 21:39 | 29.98302 | -95.33312 | 107 ft | 19 kts | 271° |
| 2026-04-30 21:39 | 29.98300 | -95.33474 | 107 ft | 21 kts | 270° |
| 2026-04-30 21:39 | 29.98310 | -95.33652 | 107 ft | 23 kts | 276° |
| 2026-04-30 21:40 | 29.98316 | -95.33843 | 107 ft | 21 kts | 270° |
| 2026-04-30 21:40 | 29.98335 | -95.33959 | 106 ft | 12 kts | 318° |
| 2026-04-30 21:40 | 29.98423 | -95.33971 | 107 ft | 14 kts | 360° |
| 2026-04-30 21:40 | 29.98480 | -95.33960 | 107 ft | 7 kts | 44° |
| 2026-04-30 21:41 | 29.98494 | -95.33907 | 107 ft | 6 kts | 73° |
| 2026-04-30 21:41 | 29.98498 | -95.33892 | 107 ft | 0 kts | 73° |